createdAt,value
2019-04-11T11:09:50.372Z,34.23
2019-04-11T11:12:21.078Z,32.50
2019-04-11T11:15:07.195Z,33.23
2019-04-11T11:18:00.911Z,35.00
2019-04-11T11:20:34.713Z,33.87
2019-04-11T11:23:02.932Z,36.33
2019-04-11T11:25:51.715Z,34.97
2019-04-11T11:28:27.941Z,40.17
2019-04-11T11:31:10.110Z,32.67
2019-04-11T11:33:38.669Z,32.50
2019-04-11T11:36:25.724Z,32.73
2019-04-11T11:39:13.101Z,33.40
2019-04-11T11:41:43.201Z,34.37
2019-04-11T11:44:11.797Z,33.27
2019-04-11T11:46:44.671Z,33.67
2019-04-11T11:49:14.079Z,36.20
2019-04-11T11:51:45.748Z,36.37
2019-04-11T11:54:15.879Z,35.37
2019-04-11T11:56:47.268Z,38.43
2019-04-11T11:59:18.239Z,36.53
2019-04-11T12:01:50.992Z,36.20
2019-04-11T12:04:33.055Z,40.97
2019-04-11T12:07:16.937Z,37.00
2019-04-11T12:10:03.147Z,39.33
2019-04-11T12:12:33.200Z,42.10
2019-04-11T12:15:22.300Z,38.97
2019-04-11T12:18:01.780Z,36.47
2019-04-11T12:20:46.082Z,37.43
2019-04-11T12:23:22.701Z,35.97
2019-04-11T12:25:51.638Z,35.57
2019-04-11T12:28:21.919Z,37.27
2019-04-11T12:30:53.089Z,37.40
2019-04-11T12:33:39.765Z,37.23
2019-04-11T12:36:09.957Z,39.33
2019-04-11T12:38:43.014Z,39.53
2019-04-11T12:41:15.765Z,40.33
2019-04-11T12:44:04.312Z,36.57
2019-04-11T12:46:51.037Z,34.83
2019-04-11T12:49:27.096Z,34.43
2019-04-11T12:52:13.164Z,34.23
2019-04-11T12:54:55.126Z,32.73
2019-04-11T12:57:41.440Z,33.77
2019-04-11T13:00:11.633Z,35.73
2019-04-11T13:02:57.711Z,37.00
2019-04-11T13:05:27.096Z,41.23
2019-04-11T13:07:57.153Z,38.23
2019-04-11T13:10:25.645Z,40.07
2019-04-11T13:13:12.333Z,39.57
2019-04-11T13:15:42.400Z,39.83
2019-04-11T13:18:15.323Z,40.63
2019-04-11T13:20:51.130Z,44.73
2019-04-11T13:23:36.227Z,43.67
2019-04-11T13:26:22.587Z,42.03
2019-04-11T13:29:08.928Z,41.90
2019-04-11T13:31:54.043Z,39.53
2019-04-11T13:34:27.190Z,45.43
2019-04-11T13:37:13.351Z,42.13
2019-04-11T13:39:43.206Z,41.87
2019-04-11T13:42:29.723Z,42.00
2019-04-11T13:44:58.156Z,45.60
2019-04-11T13:47:40.548Z,41.37
2019-04-11T13:50:16.307Z,43.13
2019-04-11T13:52:46.843Z,43.70
2019-04-11T13:55:17.847Z,43.80
2019-04-11T13:58:04.215Z,44.13
2019-04-11T14:00:43.591Z,41.43
2019-04-11T14:03:25.280Z,46.03
2019-04-11T14:05:55.213Z,45.00
2019-04-11T14:08:31.339Z,41.67
2019-04-11T14:11:07.207Z,41.47
2019-04-11T14:13:43.356Z,43.57
2019-04-11T14:16:13.418Z,40.13
2019-04-11T14:18:58.596Z,40.50
2019-04-11T14:21:31.312Z,44.30
2019-04-11T14:24:07.084Z,40.13
2019-04-11T14:26:40.064Z,43.47
2019-04-11T14:29:10.128Z,46.83
2019-04-11T14:31:40.732Z,41.93
2019-04-11T14:34:29.169Z,43.30
2019-04-11T14:37:15.137Z,41.10
2019-04-11T14:39:51.021Z,41.37
2019-04-11T14:42:42.196Z,42.53
2019-04-11T14:45:09.767Z,40.63
2019-04-11T14:47:39.980Z,41.17
2019-04-11T14:50:11.205Z,42.53
2019-04-11T14:52:47.474Z,41.53
2019-04-11T14:55:19.057Z,41.20
2019-04-11T14:57:49.379Z,42.27
2019-04-11T15:00:25.401Z,41.87
2019-04-11T15:03:12.048Z,43.03
2019-04-11T15:05:48.010Z,41.40
2019-04-11T15:08:18.283Z,41.87
2019-04-11T15:10:54.125Z,43.20
2019-04-11T15:13:24.187Z,42.57
2019-04-11T15:15:54.303Z,45.20
2019-04-11T15:18:26.516Z,42.13
2019-04-11T15:20:55.828Z,44.10
2019-04-11T15:23:26.128Z,42.00
2019-04-11T15:25:56.187Z,43.90
2019-04-11T15:28:43.919Z,43.03
2019-04-11T15:31:38.464Z,43.37
2019-04-11T15:34:07.077Z,40.17
2019-04-11T15:36:39.741Z,41.10
2019-04-11T15:39:17.751Z,43.00
2019-04-11T15:41:47.794Z,41.17
2019-04-11T15:44:34.027Z,42.23
2019-04-11T15:47:18.844Z,44.17
2019-04-11T15:50:04.657Z,42.60
2019-04-11T15:52:34.712Z,40.27
2019-04-11T15:55:21.445Z,42.77
2019-04-11T15:57:49.859Z,45.23
2019-04-11T16:00:37.410Z,42.83
2019-04-11T16:03:06.897Z,42.00
2019-04-11T16:05:36.952Z,43.47
2019-04-11T16:08:12.905Z,42.00
2019-04-11T16:10:42.947Z,42.93
2019-04-11T16:13:24.612Z,43.90
2019-04-11T16:16:05.247Z,43.80
2019-04-11T16:18:47.125Z,45.03
2019-04-11T16:21:33.314Z,46.63
2019-04-11T16:24:03.375Z,41.00
2019-04-11T16:26:33.400Z,47.67
2019-04-11T16:29:09.490Z,46.93
2019-04-11T16:31:40.186Z,45.07
2019-04-11T16:34:27.028Z,45.80
2019-04-11T16:36:55.578Z,46.20
2019-04-11T16:39:32.978Z,45.87
2019-04-11T16:42:03.166Z,46.47
2019-04-11T16:44:48.200Z,42.80
2019-04-11T16:47:18.238Z,43.23
2019-04-11T16:49:46.652Z,45.30
2019-04-11T16:52:16.867Z,45.43
2019-04-11T16:54:45.562Z,46.13
2019-04-11T16:57:14.321Z,47.90
2019-04-11T16:59:42.839Z,45.70
2019-04-11T17:02:13.358Z,44.50
2019-04-11T17:04:44.752Z,47.47
2019-04-11T17:07:33.496Z,43.43
2019-04-11T17:10:07.974Z,46.73
2019-04-11T17:12:36.646Z,45.73
2019-04-11T17:15:08.393Z,46.03
2019-04-11T17:17:37.534Z,46.60
2019-04-11T17:20:07.221Z,47.10
2019-04-11T17:22:39.032Z,44.27
2019-04-11T17:25:12.048Z,41.97
2019-04-11T17:27:40.721Z,45.73
2019-04-11T17:30:09.397Z,43.27
2019-04-11T17:32:37.866Z,43.00
2019-04-11T17:35:07.022Z,40.00
2019-04-11T17:37:35.427Z,43.37
2019-04-11T17:40:07.691Z,44.53
2019-04-11T17:42:36.990Z,41.67
2019-04-11T17:45:07.184Z,43.03
2019-04-11T17:47:35.722Z,42.27
2019-04-11T17:50:08.822Z,39.67
2019-04-11T17:52:37.340Z,40.87
2019-04-11T17:55:06.750Z,36.30
2019-04-11T17:57:35.425Z,40.37
2019-04-11T18:00:16.913Z,41.77
2019-04-11T18:02:46.413Z,41.80
2019-04-11T18:05:17.207Z,41.20
2019-04-11T18:07:47.551Z,38.87
2019-04-11T18:10:15.977Z,40.77
2019-04-11T18:12:44.495Z,40.27
2019-04-11T18:15:13.074Z,42.33
2019-04-11T18:17:41.684Z,39.90
2019-04-11T18:20:10.620Z,40.17
2019-04-11T18:22:39.063Z,40.07
2019-04-11T18:25:07.864Z,38.50
2019-04-11T18:27:36.361Z,36.40
2019-04-11T18:30:08.166Z,38.07
2019-04-11T18:32:36.868Z,35.30
2019-04-11T18:35:07.595Z,33.03
2019-04-11T18:37:36.251Z,31.93
2019-04-11T18:40:10.381Z,34.80
2019-04-11T18:42:57.220Z,34.67
2019-04-11T18:45:25.724Z,33.90
2019-04-11T18:47:54.224Z,34.90
2019-04-11T18:50:24.511Z,34.43
2019-04-11T18:52:53.186Z,31.83
2019-04-11T18:55:22.766Z,35.50
2019-04-11T18:57:51.176Z,32.47
2019-04-11T19:00:23.768Z,33.83
2019-04-11T19:02:52.104Z,34.53
2019-04-11T19:05:29.078Z,37.50
2019-04-11T19:07:57.118Z,32.77
2019-04-11T19:10:26.958Z,31.83
2019-04-11T19:12:55.802Z,31.83
2019-04-11T19:15:24.656Z,33.60
2019-04-11T19:18:06.276Z,29.83
2019-04-11T19:20:25.413Z,31.00
2019-04-11T19:22:53.869Z,28.87
2019-04-11T19:25:24.732Z,35.00
2019-04-11T19:27:54.402Z,31.00
2019-04-11T19:30:23.969Z,29.67
2019-04-11T19:33:02.828Z,28.47
2019-04-11T19:35:31.241Z,28.13
2019-04-11T19:37:59.930Z,30.10
2019-04-11T19:40:30.662Z,28.23
2019-04-11T19:43:01.451Z,27.70
2019-04-11T19:45:28.781Z,29.93
2019-04-11T19:47:58.826Z,28.83
2019-04-11T19:50:29.067Z,27.80
2019-04-11T19:52:57.810Z,32.40
2019-04-11T19:55:44.213Z,31.20
2019-04-11T19:58:14.659Z,30.10
2019-04-11T20:00:43.240Z,30.00
2019-04-11T20:03:11.684Z,33.27
2019-04-11T20:05:40.098Z,27.90
2019-04-11T20:08:08.582Z,29.53
2019-04-11T20:10:36.991Z,29.93
2019-04-11T20:13:05.399Z,28.73
2019-04-11T20:15:37.176Z,28.57
2019-04-11T20:18:04.015Z,27.77
2019-04-11T20:20:32.439Z,29.30
2019-04-11T20:23:00.835Z,30.77
2019-04-11T20:25:29.257Z,29.10
2019-04-11T20:27:57.680Z,27.53
2019-04-11T20:30:26.232Z,27.63
2019-04-11T20:32:54.656Z,27.37
2019-04-11T20:35:28.776Z,29.23
2019-04-11T20:37:54.376Z,27.73
2019-04-11T20:40:22.844Z,28.60
2019-04-11T20:42:54.037Z,29.43
2019-04-11T20:45:21.769Z,32.30
2019-04-11T20:47:50.175Z,29.63
2019-04-11T20:50:18.586Z,29.30
2019-04-11T20:52:46.995Z,28.23
2019-04-11T20:55:15.663Z,25.93
2019-04-11T20:57:44.348Z,26.53
2019-04-11T21:00:13.991Z,27.03
2019-04-11T21:02:42.405Z,30.30
2019-04-11T21:05:10.816Z,30.00
2019-04-11T21:07:39.299Z,26.77
2019-04-11T21:10:08.151Z,26.63
2019-04-11T21:12:37.268Z,30.40
2019-04-11T21:15:09.495Z,27.50
2019-04-11T21:17:37.911Z,27.97
2019-04-11T21:20:07.852Z,29.93
2019-04-11T21:22:36.472Z,29.67
2019-04-11T21:25:05.842Z,26.87
2019-04-11T21:27:34.264Z,30.13
2019-04-11T21:30:02.811Z,31.63
2019-04-11T21:32:31.915Z,26.80
2019-04-11T21:35:02.330Z,27.13
2019-04-11T21:37:31.252Z,28.17
2019-04-11T21:39:59.652Z,29.33
2019-04-11T21:42:28.061Z,29.13
2019-04-11T21:44:56.480Z,30.80
2019-04-11T21:47:24.962Z,26.50
2019-04-11T21:49:53.359Z,27.87
2019-04-11T21:52:21.776Z,27.93
2019-04-11T21:54:50.185Z,28.77
2019-04-11T21:57:19.232Z,28.57
2019-04-11T21:59:51.273Z,24.60
2019-04-11T22:02:18.051Z,27.10
2019-04-11T22:04:46.459Z,24.90
2019-04-11T22:07:14.942Z,26.67
2019-04-11T22:09:43.359Z,27.10
2019-04-11T22:12:11.766Z,25.07
2019-04-11T22:14:42.026Z,29.43
2019-04-11T22:17:10.315Z,27.47
2019-04-11T22:19:38.724Z,25.97
2019-04-11T22:22:07.139Z,25.63
2019-04-11T22:24:35.554Z,25.47
2019-04-11T22:27:03.959Z,25.80
2019-04-11T22:29:32.375Z,26.70
2019-04-11T22:32:00.783Z,28.73
2019-04-11T22:34:42.839Z,25.77
2019-04-11T22:37:11.247Z,28.20
2019-04-11T22:39:39.659Z,27.37
2019-04-11T22:42:08.211Z,29.00
2019-04-11T22:44:38.054Z,29.43
2019-04-11T22:47:08.115Z,26.60
2019-04-11T22:49:39.358Z,27.00
2019-04-11T22:52:07.217Z,26.47
2019-04-11T22:54:35.620Z,26.57
2019-04-11T22:57:04.100Z,28.63
2019-04-11T22:59:32.604Z,28.13
2019-04-11T23:02:05.363Z,29.10
2019-04-11T23:04:33.773Z,27.27
2019-04-11T23:07:02.199Z,27.67
2019-04-11T23:09:30.606Z,26.57
2019-04-11T23:11:59.024Z,32.10
2019-04-11T23:14:27.439Z,28.70
2019-04-11T23:16:55.854Z,29.03
2019-04-11T23:19:24.258Z,30.67
2019-04-11T23:21:52.699Z,28.20
2019-04-11T23:24:21.127Z,30.07
2019-04-11T23:26:49.527Z,30.23
2019-04-11T23:29:17.939Z,31.10
2019-04-11T23:31:46.350Z,33.00
2019-04-11T23:34:14.780Z,32.73
2019-04-11T23:36:43.187Z,34.00
2019-04-11T23:39:11.644Z,32.97
2019-04-11T23:41:40.080Z,35.33
2019-04-11T23:44:08.588Z,34.10
2019-04-11T23:46:36.991Z,32.10
2019-04-11T23:49:05.407Z,31.20
2019-04-11T23:51:33.815Z,32.30
2019-04-11T23:54:02.227Z,32.67
2019-04-11T23:56:31.326Z,32.60
2019-04-11T23:59:01.975Z,31.50
